createdAt,value
2022-08-19T04:01:12.701Z,100605.69
2022-08-19T04:03:41.295Z,100598.25
2022-08-19T04:06:13.550Z,100605.69
2022-08-19T04:08:41.578Z,100602.34
2022-08-19T04:11:10.351Z,100598.78
2022-08-19T04:13:38.748Z,100606.22
2022-08-19T04:16:07.585Z,100608.72
2022-08-19T04:18:36.588Z,100604.56
2022-08-19T04:21:05.013Z,100614.47
2022-08-19T04:23:33.537Z,100625.78
2022-08-19T04:26:01.460Z,100617.25
2022-08-19T04:28:31.162Z,100605.41
2022-08-19T04:30:59.438Z,100605.06
2022-08-19T04:33:29.475Z,100604.03
2022-08-19T04:35:59.193Z,100597.16
2022-08-19T04:38:27.020Z,100598.53
2022-08-19T04:41:12.354Z,100601.75
2022-08-19T04:43:40.528Z,100593.78
2022-08-19T04:46:09.033Z,100588.84
2022-08-19T04:48:38.001Z,100589.97
2022-08-19T04:51:18.269Z,100588.66
2022-08-19T04:53:46.086Z,100596.09
2022-08-19T04:56:17.500Z,100608.75
2022-08-19T04:58:46.818Z,100610.09
2022-08-19T05:01:15.138Z,100615.59
2022-08-19T05:03:42.784Z,100614.44
2022-08-19T05:06:13.251Z,100617.72
2022-08-19T05:08:44.174Z,100613.81
2022-08-19T05:11:14.398Z,100631.34
2022-08-19T05:13:43.215Z,100627.47
2022-08-19T05:16:12.032Z,100622.25
2022-08-19T05:18:53.777Z,100610.44
2022-08-19T05:21:40.703Z,100615.75
2022-08-19T05:24:09.927Z,100602.81
2022-08-19T05:26:38.104Z,100600.84
2022-08-19T05:29:06.238Z,100601.88
2022-08-19T05:31:36.699Z,100598.88
2022-08-19T05:34:18.170Z,100599.44
2022-08-19T05:36:48.561Z,100601.09
2022-08-19T05:39:20.347Z,100607.66
2022-08-19T05:41:50.388Z,100604.81
2022-08-19T05:44:19.130Z,100599.06
2022-08-19T05:46:47.952Z,100608.69
2022-08-19T05:49:16.568Z,100601.59
2022-08-19T05:51:45.397Z,100600.81
2022-08-19T05:54:14.336Z,100607.38
2022-08-19T05:56:44.381Z,100599.38
2022-08-19T05:59:12.660Z,100608.28
2022-08-19T06:01:43.000Z,100606.94
2022-08-19T06:04:10.846Z,100606.72
2022-08-19T06:06:39.006Z,100612.47
2022-08-19T06:09:08.757Z,100609.22
2022-08-19T06:11:38.840Z,100619.16
2022-08-19T06:14:16.579Z,100622.16
2022-08-19T06:16:45.465Z,100630.69
2022-08-19T06:19:16.608Z,100618.28
2022-08-19T06:21:47.537Z,100622.91
2022-08-19T06:24:17.857Z,100625.09
2022-08-19T06:29:24.726Z,100627.34
2022-08-19T06:31:55.002Z,100640.00
2022-08-19T06:34:22.825Z,100647.06
2022-08-19T06:36:53.293Z,100647.91
2022-08-19T06:39:23.180Z,100647.66
2022-08-19T06:41:55.597Z,100650.38
2022-08-19T06:44:31.935Z,100643.09
2022-08-19T06:46:59.681Z,100650.47
2022-08-19T06:49:31.833Z,100658.22
2022-08-19T06:52:01.920Z,100654.75
2022-08-19T06:54:30.819Z,100660.28
2022-08-19T06:56:59.029Z,100657.56
2022-08-19T06:59:29.026Z,100666.56
2022-08-19T07:01:58.448Z,100659.09
2022-08-19T07:04:28.017Z,100663.53
2022-08-19T07:06:59.900Z,100671.47
2022-08-19T07:09:57.955Z,100680.66
2022-08-19T07:12:30.661Z,100683.47
2022-08-19T07:15:00.546Z,100680.19
2022-08-19T07:17:29.779Z,100674.63
2022-08-19T07:19:58.942Z,100685.88
2022-08-19T07:22:34.745Z,100679.59
2022-08-19T07:25:04.478Z,100699.47
2022-08-19T07:27:33.699Z,100701.94
2022-08-19T07:30:02.848Z,100699.19
2022-08-19T07:32:31.609Z,100698.66
2022-08-19T07:35:01.695Z,100706.41
2022-08-19T07:37:33.085Z,100711.94
2022-08-19T07:40:02.020Z,100712.75
2022-08-19T07:42:30.444Z,100712.22
2022-08-19T07:44:58.689Z,100722.13
2022-08-19T07:47:49.270Z,100732.81
2022-08-19T07:50:17.086Z,100737.22
2022-08-19T07:52:48.818Z,100735.56
2022-08-19T07:55:41.685Z,100741.91
2022-08-19T07:58:06.755Z,100738.91
2022-08-19T08:00:34.509Z,100749.31
2022-08-19T08:03:03.419Z,100737.44
2022-08-19T08:05:48.661Z,100732.88
2022-08-19T08:08:33.921Z,100740.91
2022-08-19T08:11:02.299Z,100741.31
2022-08-19T08:13:30.079Z,100744.38
2022-08-19T08:15:58.168Z,100758.13
2022-08-19T08:18:27.462Z,100747.13
2022-08-19T08:20:56.148Z,100746.09
2022-08-19T08:23:27.278Z,100745.09
2022-08-19T08:25:57.985Z,100741.53
2022-08-19T08:28:29.575Z,100749.88
2022-08-19T08:30:59.046Z,100738.91
2022-08-19T08:33:34.817Z,100749.13
2022-08-19T08:36:04.201Z,100750.09
2022-08-19T08:38:38.350Z,100734.41
2022-08-19T08:41:20.339Z,100747.03
2022-08-19T08:43:51.832Z,100746.47
2022-08-19T08:46:30.507Z,100746.75
2022-08-19T08:49:08.272Z,100736.06
2022-08-19T08:54:16.142Z,100744.72
2022-08-19T08:56:46.931Z,100737.06
2022-08-19T08:59:21.183Z,100732.66
2022-08-19T09:01:49.357Z,100743.69
2022-08-19T09:04:18.544Z,100745.06
2022-08-19T09:06:56.862Z,100737.44
2022-08-19T09:09:33.357Z,100746.56
2022-08-19T09:12:11.889Z,100742.44
2022-08-19T09:14:52.332Z,100735.25
2022-08-19T09:17:31.674Z,100744.94
2022-08-19T09:20:09.249Z,100738.09
2022-08-19T09:22:38.362Z,100736.41
2022-08-19T09:25:08.586Z,100734.22
2022-08-19T09:27:43.132Z,100734.53
2022-08-19T09:30:24.741Z,100730.13
2022-08-19T09:32:53.924Z,100729.06
2022-08-19T09:35:24.989Z,100717.47
2022-08-19T09:37:57.755Z,100730.41
2022-08-19T09:40:30.013Z,100724.09
2022-08-19T09:43:10.094Z,100715.59
2022-08-19T09:45:41.614Z,100711.47
2022-08-19T09:48:09.658Z,100715.91
2022-08-19T09:50:51.564Z,100726.09
2022-08-19T09:53:25.204Z,100727.75
2022-08-19T09:55:53.621Z,100725.84
2022-08-19T09:58:26.094Z,100722.22
2022-08-19T10:00:54.578Z,100723.06
2022-08-19T10:03:25.608Z,100724.44
2022-08-19T10:06:00.740Z,100726.91
2022-08-19T10:08:30.404Z,100723.34
2022-08-19T10:10:59.265Z,100716.75
2022-08-19T10:13:32.827Z,100720.88
2022-08-19T10:16:05.866Z,100722.25
2022-08-19T10:18:35.172Z,100723.38
2022-08-19T10:21:11.594Z,100717.00
2022-08-19T10:23:41.078Z,100712.63
2022-08-19T10:26:09.420Z,100718.41
2022-08-19T10:28:39.083Z,100706.00
2022-08-19T10:31:08.410Z,100714.28
2022-08-19T10:33:41.706Z,100710.94
2022-08-19T10:36:24.923Z,100699.38
2022-08-19T10:38:57.030Z,100689.44
2022-08-19T10:41:27.824Z,100681.47
2022-08-19T10:43:57.485Z,100691.94
2022-08-19T10:46:33.389Z,100677.31
2022-08-19T10:49:02.381Z,100687.78
2022-08-19T10:51:51.173Z,100676.75
2022-08-19T10:54:19.282Z,100665.72
2022-08-19T10:56:58.026Z,100662.44
2022-08-19T10:59:31.469Z,100669.59
2022-08-19T11:02:03.725Z,100659.13
2022-08-19T11:04:33.085Z,100661.31
2022-08-19T11:07:01.972Z,100651.94
2022-08-19T11:09:33.937Z,100666.28
2022-08-19T11:12:03.012Z,100659.09
2022-08-19T11:14:34.014Z,100657.72
2022-08-19T11:17:02.749Z,100663.75
2022-08-19T11:19:30.942Z,100656.03
2022-08-19T11:22:00.303Z,100656.25
2022-08-19T11:24:30.600Z,100652.09
2022-08-19T11:27:05.400Z,100644.59
2022-08-19T11:29:35.255Z,100635.78
2022-08-19T11:32:07.289Z,100640.69
2022-08-19T11:34:36.241Z,100630.19
2022-08-19T11:37:04.532Z,100631.84
2022-08-19T11:39:36.332Z,100622.94
2022-08-19T11:42:25.138Z,100623.47
2022-08-19T11:44:53.428Z,100630.81
2022-08-19T11:47:21.469Z,100633.22
2022-08-19T11:49:49.256Z,100636.47
2022-08-19T11:52:17.158Z,100640.06
2022-08-19T11:54:46.097Z,100634.72
2022-08-19T11:57:15.739Z,100647.13
2022-08-19T11:59:43.307Z,100644.31
2022-08-19T12:02:11.629Z,100642.34
2022-08-19T12:04:39.314Z,100635.91
2022-08-19T12:07:07.443Z,100635.31
2022-08-19T12:09:35.390Z,100637.25
2022-08-19T12:12:05.555Z,100624.63
2022-08-19T12:14:33.180Z,100621.41
2022-08-19T12:17:00.980Z,100616.97
2022-08-19T12:19:29.184Z,100609.59
2022-08-19T12:22:02.360Z,100613.13
2022-08-19T12:24:32.904Z,100605.56
2022-08-19T12:27:03.121Z,100603.41
2022-08-19T12:29:33.255Z,100615.69
2022-08-19T12:32:02.103Z,100622.22
2022-08-19T12:34:31.737Z,100619.84
2022-08-19T12:37:00.096Z,100615.19
2022-08-19T12:39:27.787Z,100608.59
2022-08-19T12:41:55.797Z,100606.53
2022-08-19T12:44:29.357Z,100600.84
2022-08-19T12:46:58.848Z,100605.34
2022-08-19T12:49:54.711Z,100616.97
2022-08-19T12:52:16.580Z,100616.34
2022-08-19T12:54:49.237Z,100623.00
2022-08-19T12:57:24.490Z,100616.31
2022-08-19T13:00:00.321Z,100614.41
2022-08-19T13:02:29.670Z,100620.72
2022-08-19T13:04:57.757Z,100611.34
2022-08-19T13:07:25.413Z,100602.44
2022-08-19T13:09:53.330Z,100595.44
2022-08-19T13:12:24.936Z,100605.88
2022-08-19T13:14:52.979Z,100600.66
2022-08-19T13:17:20.861Z,100607.38
2022-08-19T13:19:49.853Z,100609.63
2022-08-19T13:22:17.769Z,100606.44
2022-08-19T13:24:47.444Z,100593.47
2022-08-19T13:27:15.973Z,100596.66
2022-08-19T13:30:01.952Z,100590.47
2022-08-19T13:32:48.966Z,100593.22
2022-08-19T13:35:19.030Z,100593.38
2022-08-19T13:37:46.598Z,100588.06
2022-08-19T13:40:19.015Z,100591.72
2022-08-19T13:42:48.932Z,100590.84
2022-08-19T13:45:18.831Z,100594.81
2022-08-19T13:47:48.142Z,100597.59
2022-08-19T13:50:20.408Z,100588.50
2022-08-19T13:52:49.260Z,100596.41
2022-08-19T13:55:24.821Z,100598.75
2022-08-19T13:57:53.814Z,100594.13
2022-08-19T14:00:24.770Z,100589.88
2022-08-19T14:02:53.799Z,100587.84
2022-08-19T14:05:23.357Z,100590.81
2022-08-19T14:07:51.385Z,100593.94
2022-08-19T14:10:19.769Z,100586.75
2022-08-19T14:12:47.431Z,100589.13
2022-08-19T14:15:16.606Z,100583.25
2022-08-19T14:17:47.453Z,100584.91
2022-08-19T14:20:17.789Z,100595.19
2022-08-19T14:22:49.786Z,100586.09
2022-08-19T14:25:19.880Z,100592.16
2022-08-19T14:27:48.307Z,100586.94
2022-08-19T14:30:18.885Z,100590.88
2022-08-19T14:32:46.724Z,100587.56
2022-08-19T14:35:16.174Z,100589.06
2022-08-19T14:37:46.272Z,100587.44
2022-08-19T14:40:16.958Z,100588.25
2022-08-19T14:42:45.717Z,100580.88
2022-08-19T14:45:14.340Z,100580.06
2022-08-19T14:47:42.001Z,100569.44
2022-08-19T14:50:15.288Z,100572.22
2022-08-19T14:52:46.643Z,100579.06
2022-08-19T14:55:16.216Z,100578.78
2022-08-19T14:57:45.005Z,100589.13
2022-08-19T15:00:14.640Z,100594.19
2022-08-19T15:02:44.909Z,100594.66
2022-08-19T15:05:13.156Z,100596.53
2022-08-19T15:07:41.795Z,100600.03
2022-08-19T15:10:11.801Z,100602.06
2022-08-19T15:12:41.668Z,100606.91
2022-08-19T15:15:13.588Z,100599.97
2022-08-19T15:17:54.328Z,100603.16
2022-08-19T15:20:23.669Z,100607.19
2022-08-19T15:22:52.187Z,100605.50
2022-08-19T15:25:21.169Z,100602.16
2022-08-19T15:27:51.048Z,100605.09
2022-08-19T15:30:23.165Z,100599.19
2022-08-19T15:32:50.916Z,100605.94
2022-08-19T15:35:19.368Z,100607.00
2022-08-19T15:37:47.294Z,100614.53
2022-08-19T15:40:14.951Z,100608.88
2022-08-19T15:42:43.421Z,100611.69
2022-08-19T15:45:14.159Z,100612.53
2022-08-19T15:47:42.433Z,100601.84
2022-08-19T15:50:13.173Z,100609.16
2022-08-19T15:52:49.449Z,100607.31
2022-08-19T15:55:32.653Z,100612.03
2022-08-19T15:58:36.538Z,100605.03
2022-08-19T16:01:27.394Z,100609.25
2022-08-19T16:04:15.855Z,100606.47
2022-08-19T16:06:46.118Z,100599.84
2022-08-19T16:09:14.217Z,100605.31
2022-08-19T16:11:45.753Z,100610.66
2022-08-19T16:14:14.415Z,100609.63
2022-08-19T16:16:46.544Z,100600.78
2022-08-19T16:19:16.515Z,100603.56
2022-08-19T16:21:46.011Z,100610.22
2022-08-19T16:24:15.311Z,100604.50
2022-08-19T16:26:44.129Z,100597.59
2022-08-19T16:29:13.351Z,100588.75
2022-08-19T16:31:45.995Z,100580.53
2022-08-19T16:34:14.880Z,100588.63
2022-08-19T16:36:43.385Z,100590.06
2022-08-19T16:39:12.483Z,100591.53
2022-08-19T16:41:41.216Z,100585.13
2022-08-19T16:44:11.586Z,100578.47
2022-08-19T16:46:41.550Z,100584.81
2022-08-19T16:49:12.318Z,100584.50
2022-08-19T16:51:40.484Z,100590.38
2022-08-19T16:54:08.718Z,100582.38
2022-08-19T16:56:36.779Z,100587.09
2022-08-19T16:59:04.896Z,100590.38
2022-08-19T17:01:32.610Z,100582.06
2022-08-19T17:04:00.277Z,100587.59
2022-08-19T17:06:31.018Z,100595.13
2022-08-19T17:09:01.074Z,100599.00
2022-08-19T17:11:32.872Z,100597.34
2022-08-19T17:14:01.978Z,100601.88
2022-08-19T17:16:32.483Z,100602.19
2022-08-19T17:19:02.978Z,100603.94
2022-08-19T17:21:34.532Z,100597.25
2022-08-19T17:24:06.101Z,100595.91
2022-08-19T17:26:34.216Z,100589.03
2022-08-19T17:29:02.485Z,100584.59
2022-08-19T17:31:32.574Z,100581.31
2022-08-19T17:34:01.643Z,100571.13
2022-08-19T17:36:34.776Z,100562.88
2022-08-19T17:39:05.319Z,100567.38
2022-08-19T17:41:36.907Z,100571.06
2022-08-19T17:44:07.299Z,100568.59
2022-08-19T17:46:45.332Z,100569.22
2022-08-19T17:49:21.830Z,100572.38
2022-08-19T17:51:54.324Z,100578.81
2022-08-19T17:54:33.924Z,100580.03
2022-08-19T17:57:09.756Z,100577.84
2022-08-19T17:59:41.150Z,100578.78
2022-08-19T18:02:12.458Z,100573.84
2022-08-19T18:04:46.841Z,100578.84
2022-08-19T18:07:21.971Z,100574.75
2022-08-19T18:09:55.643Z,100578.13
2022-08-19T18:12:27.310Z,100582.63
2022-08-19T18:14:55.806Z,100584.88
2022-08-19T18:17:26.285Z,100593.78
2022-08-19T18:19:55.070Z,100590.16
2022-08-19T18:22:28.492Z,100594.09
2022-08-19T18:25:01.123Z,100588.00
2022-08-19T18:27:30.897Z,100589.44
2022-08-19T18:29:59.932Z,100600.78
2022-08-19T18:32:32.039Z,100599.94
2022-08-19T18:35:01.120Z,100599.13
2022-08-19T18:37:30.933Z,100609.63
2022-08-19T18:40:16.846Z,100622.38
2022-08-19T18:43:18.233Z,100619.84
2022-08-19T18:46:07.117Z,100618.72
2022-08-19T18:48:54.100Z,100617.88
2022-08-19T18:51:27.735Z,100615.41
2022-08-19T18:53:58.881Z,100608.53
2022-08-19T18:56:31.900Z,100619.06
2022-08-19T18:59:02.792Z,100622.13
2022-08-19T19:01:34.197Z,100621.31
2022-08-19T19:04:04.952Z,100625.19
2022-08-19T19:06:40.206Z,100622.72
2022-08-19T19:09:11.220Z,100636.28
2022-08-19T19:11:40.939Z,100634.03
2022-08-19T19:14:19.205Z,100633.50
2022-08-19T19:17:00.405Z,100638.84
2022-08-19T19:19:28.212Z,100633.63
2022-08-19T19:21:56.554Z,100636.19
2022-08-19T19:24:30.412Z,100647.34
2022-08-19T19:27:00.610Z,100645.75
2022-08-19T19:29:28.557Z,100661.84
2022-08-19T19:31:56.868Z,100666.84
2022-08-19T19:34:29.831Z,100666.91
2022-08-19T19:36:58.104Z,100664.19
2022-08-19T19:39:34.024Z,100670.88
2022-08-19T19:42:20.388Z,100672.56
2022-08-19T19:44:50.364Z,100677.81
2022-08-19T19:47:19.228Z,100674.81
2022-08-19T19:50:12.796Z,100675.69
2022-08-19T19:52:35.385Z,100685.19
2022-08-19T19:55:05.466Z,100686.66
2022-08-19T19:57:33.156Z,100695.47
2022-08-19T20:00:00.793Z,100698.84
2022-08-19T20:02:28.539Z,100705.78
2022-08-19T20:04:57.065Z,100703.31
2022-08-19T20:07:44.654Z,100709.97
2022-08-19T20:10:13.298Z,100706.69
2022-08-19T20:12:41.029Z,100701.69
2022-08-19T20:15:10.049Z,100702.00
2022-08-19T20:17:42.407Z,100705.09
2022-08-19T20:20:11.371Z,100706.81
2022-08-19T20:22:39.732Z,100700.72
2022-08-19T20:25:08.278Z,100701.31
2022-08-19T20:27:50.693Z,100701.03
2022-08-19T20:30:20.817Z,100708.50
2022-08-19T20:32:50.672Z,100706.56
2022-08-19T20:35:20.948Z,100709.63
2022-08-19T20:37:49.301Z,100701.59
2022-08-19T20:40:21.638Z,100710.75
2022-08-19T20:42:51.407Z,100714.41
2022-08-19T20:45:32.178Z,100717.47
2022-08-19T20:48:02.269Z,100718.56
2022-08-19T20:50:30.168Z,100725.22
2022-08-19T20:52:59.465Z,100723.03
2022-08-19T20:55:28.803Z,100724.16
2022-08-19T20:57:58.564Z,100721.38
2022-08-19T21:00:26.372Z,100728.56
2022-08-19T21:02:53.922Z,100720.00
2022-08-19T21:05:21.604Z,100725.28
2022-08-19T21:07:49.246Z,100714.81
2022-08-19T21:10:17.862Z,100720.94
2022-08-19T21:12:46.191Z,100722.06
2022-08-19T21:15:16.668Z,100714.88
2022-08-19T21:17:44.266Z,100721.00
2022-08-19T21:20:12.226Z,100725.44
2022-08-19T21:22:39.966Z,100716.63
2022-08-19T21:25:08.852Z,100723.53
2022-08-19T21:27:36.412Z,100724.91
2022-08-19T21:30:04.947Z,100720.25
2022-08-19T21:32:34.032Z,100721.91
2022-08-19T21:35:02.140Z,100723.81
2022-08-19T21:37:33.373Z,100726.28
2022-08-19T21:40:01.458Z,100725.75
2022-08-19T21:42:29.096Z,100728.78
2022-08-19T21:44:56.832Z,100727.94
2022-08-19T21:47:24.530Z,100726.56
2022-08-19T21:49:53.533Z,100725.75
2022-08-19T21:52:23.237Z,100726.56
2022-08-19T21:54:50.899Z,100731.81
2022-08-19T21:57:19.061Z,100732.38
2022-08-19T21:59:47.759Z,100742.06
2022-08-19T22:02:21.577Z,100737.09
2022-08-19T22:04:50.808Z,100749.28
2022-08-19T22:07:21.323Z,100743.75
2022-08-19T22:09:51.574Z,100735.19
2022-08-19T22:12:25.792Z,100738.53
2022-08-19T22:14:54.355Z,100736.56
2022-08-19T22:17:23.232Z,100735.50
2022-08-19T22:19:52.298Z,100736.06
2022-08-19T22:22:26.491Z,100727.22
2022-08-19T22:24:55.604Z,100730.28
2022-08-19T22:27:23.887Z,100732.78
2022-08-19T22:29:52.588Z,100722.34
2022-08-19T22:32:26.708Z,100729.53
2022-08-19T22:34:58.349Z,100723.47
2022-08-19T22:37:29.100Z,100725.72
2022-08-19T22:39:56.956Z,100734.00
2022-08-19T22:42:25.679Z,100726.53
2022-08-19T22:45:00.036Z,100729.59
2022-08-19T22:47:29.491Z,100728.50
2022-08-19T22:50:01.994Z,100735.66
2022-08-19T22:52:30.015Z,100735.09
2022-08-19T22:55:01.301Z,100728.78
2022-08-19T22:57:29.449Z,100734.88
2022-08-19T22:59:58.869Z,100728.50
2022-08-19T23:02:31.467Z,100733.50
2022-08-19T23:05:02.115Z,100732.13
2022-08-19T23:07:32.203Z,100723.25
2022-08-19T23:10:00.147Z,100718.31
2022-08-19T23:12:30.536Z,100716.06
2022-08-19T23:15:03.297Z,100718.81
2022-08-19T23:17:30.944Z,100716.63
2022-08-19T23:19:59.788Z,100714.72
2022-08-19T23:22:29.361Z,100709.19
2022-08-19T23:25:02.504Z,100714.16
2022-08-19T23:27:46.636Z,100709.47
2022-08-19T23:30:29.364Z,100707.50
2022-08-19T23:32:58.896Z,100716.38
2022-08-19T23:35:28.312Z,100701.47
2022-08-19T23:37:57.078Z,100713.03
2022-08-19T23:40:26.316Z,100712.50
2022-08-19T23:42:54.646Z,100713.31
2022-08-19T23:45:24.904Z,100712.50
2022-08-19T23:47:53.749Z,100719.97
2022-08-19T23:50:21.754Z,100715.25
2022-08-19T23:52:51.229Z,100711.38
2022-08-19T23:55:20.776Z,100705.31
2022-08-19T23:57:50.024Z,100711.13
